createdAt,value
2023-04-18T00:02:05.236Z,100.00
2023-04-18T00:04:34.213Z,100.00
2023-04-18T00:07:02.789Z,100.00
2023-04-18T00:09:31.259Z,100.00
2023-04-18T00:11:59.680Z,100.00
2023-04-18T00:14:30.270Z,100.00
2023-04-18T00:16:58.864Z,100.00
2023-04-18T00:19:27.882Z,100.00
2023-04-18T00:21:58.184Z,100.00
2023-04-18T00:24:26.772Z,100.00
2023-04-18T00:26:55.137Z,100.00
2023-04-18T00:29:23.528Z,100.00
2023-04-18T00:31:54.442Z,100.00
2023-04-18T00:34:23.131Z,100.00
2023-04-18T00:36:51.562Z,100.00
2023-04-18T00:39:20.142Z,100.00
2023-04-18T00:41:48.393Z,100.00
2023-04-18T00:44:16.946Z,100.00
2023-04-18T00:46:45.505Z,100.00
2023-04-18T00:49:14.098Z,100.00
2023-04-18T00:51:43.285Z,100.00
2023-04-18T00:54:13.688Z,100.00
2023-04-18T00:56:42.733Z,100.00
2023-04-18T00:59:12.102Z,100.00
2023-04-18T01:01:41.955Z,99.99
2023-04-18T01:04:10.356Z,99.99
2023-04-18T01:06:39.329Z,99.98
2023-04-18T01:09:08.048Z,99.73
2023-04-18T01:11:36.514Z,99.72
2023-04-18T01:14:07.189Z,99.88
2023-04-18T01:16:37.292Z,99.83
2023-04-18T01:19:06.503Z,99.94
2023-04-18T01:21:37.405Z,99.95
2023-04-18T01:24:14.175Z,99.92
2023-04-18T01:26:45.125Z,100.00
2023-04-18T01:29:13.987Z,100.00
2023-04-18T01:31:42.717Z,100.00
2023-04-18T01:34:11.787Z,100.00
2023-04-18T01:36:42.626Z,100.00
2023-04-18T01:39:13.587Z,100.00
2023-04-18T01:41:42.545Z,100.00
2023-04-18T01:44:11.525Z,100.00
2023-04-18T01:46:41.182Z,100.00
2023-04-18T01:49:10.708Z,100.00
2023-04-18T01:51:39.176Z,100.00
2023-04-18T01:54:07.823Z,100.00
2023-04-18T01:56:36.164Z,100.00
2023-04-18T01:59:04.556Z,100.00
2023-04-18T02:01:33.077Z,99.98
2023-04-18T02:04:01.650Z,100.00
2023-04-18T02:06:29.951Z,100.00
2023-04-18T02:08:58.216Z,100.00
2023-04-18T02:11:27.027Z,99.98
2023-04-18T02:13:55.512Z,100.00
2023-04-18T02:16:23.973Z,100.00
2023-04-18T02:18:52.903Z,100.00
2023-04-18T02:21:22.184Z,100.00
2023-04-18T02:23:51.139Z,100.00
2023-04-18T02:26:24.020Z,100.00
2023-04-18T02:28:52.554Z,100.00
2023-04-18T02:31:21.058Z,100.00
2023-04-18T02:33:49.509Z,100.00
2023-04-18T02:36:17.994Z,100.00
2023-04-18T02:38:46.448Z,100.00
2023-04-18T02:41:17.759Z,100.00
2023-04-18T02:43:55.696Z,100.00
2023-04-18T02:46:24.383Z,100.00
2023-04-18T02:48:53.069Z,99.99
2023-04-18T02:51:23.694Z,100.00
2023-04-18T02:53:55.408Z,99.92
2023-04-18T02:56:24.148Z,99.83
2023-04-18T02:59:11.667Z,99.58
2023-04-18T03:01:59.622Z,99.82
2023-04-18T03:04:28.310Z,99.85
2023-04-18T03:07:02.830Z,99.80
2023-04-18T03:09:34.141Z,99.91
2023-04-18T03:12:06.775Z,100.00
2023-04-18T03:14:36.478Z,99.99
2023-04-18T03:17:05.449Z,99.97
2023-04-18T03:19:39.050Z,99.99
2023-04-18T03:22:10.464Z,100.00
2023-04-18T03:24:44.208Z,100.00
2023-04-18T03:27:13.882Z,100.00
2023-04-18T03:29:43.320Z,100.00
2023-04-18T03:32:12.812Z,99.94
2023-04-18T03:34:41.325Z,99.92
2023-04-18T03:37:10.103Z,99.97
2023-04-18T03:39:43.441Z,99.92
2023-04-18T03:42:12.128Z,99.98
2023-04-18T03:44:40.870Z,99.67
2023-04-18T03:47:09.554Z,99.61
2023-04-18T03:49:40.616Z,99.56
2023-04-18T03:52:09.488Z,99.13
2023-04-18T03:54:38.180Z,99.48
2023-04-18T03:57:06.868Z,99.31
2023-04-18T03:59:37.100Z,98.92
2023-04-18T04:02:05.758Z,99.00
2023-04-18T04:04:34.663Z,99.30
2023-04-18T04:07:03.373Z,98.95
2023-04-18T04:09:31.838Z,99.45
2023-04-18T04:12:03.098Z,99.67
2023-04-18T04:14:31.772Z,99.75
2023-04-18T04:17:00.770Z,99.86
2023-04-18T04:19:30.701Z,99.74
2023-04-18T04:22:19.545Z,99.34
2023-04-18T04:24:48.229Z,99.08
2023-04-18T04:27:19.241Z,98.98
2023-04-18T04:29:49.392Z,99.18
2023-04-18T04:32:20.583Z,98.70
2023-04-18T04:34:49.745Z,98.46
2023-04-18T04:37:21.597Z,98.44
2023-04-18T04:40:01.053Z,98.22
2023-04-18T04:42:46.209Z,98.13
2023-04-18T04:45:21.124Z,98.25
2023-04-18T04:47:49.453Z,98.00
2023-04-18T04:50:19.129Z,97.92
2023-04-18T04:52:47.923Z,97.70
2023-04-18T04:55:17.731Z,97.30
2023-04-18T04:57:46.317Z,97.08
2023-04-18T05:00:41.417Z,97.29
2023-04-18T05:03:11.033Z,97.12
2023-04-18T05:05:39.614Z,96.38
2023-04-18T05:08:08.295Z,96.32
2023-04-18T05:10:37.417Z,96.17
2023-04-18T05:13:06.084Z,96.23
2023-04-18T05:15:34.975Z,96.02
2023-04-18T05:18:03.616Z,95.67
2023-04-18T05:20:32.252Z,95.54
2023-04-18T05:23:01.339Z,95.23
2023-04-18T05:25:30.142Z,95.27
2023-04-18T05:28:00.655Z,94.60
2023-04-18T05:30:29.283Z,94.64
2023-04-18T05:32:57.967Z,94.41
2023-04-18T05:35:26.624Z,94.38
2023-04-18T05:37:55.304Z,94.52
2023-04-18T05:40:24.106Z,93.78
2023-04-18T05:42:52.679Z,93.84
2023-04-18T05:45:21.267Z,93.69
2023-04-18T05:47:49.691Z,93.75
2023-04-18T05:50:18.333Z,93.16
2023-04-18T05:52:46.737Z,93.10
2023-04-18T05:55:15.132Z,92.77
2023-04-18T05:57:43.886Z,92.90
2023-04-18T06:00:13.193Z,92.60
2023-04-18T06:02:41.914Z,92.33
2023-04-18T06:05:10.941Z,91.94
2023-04-18T06:07:39.752Z,90.91
2023-04-18T06:10:11.323Z,90.69
2023-04-18T06:12:40.675Z,89.84
2023-04-18T06:15:10.187Z,90.19
2023-04-18T06:17:39.950Z,89.77
2023-04-18T06:20:10.937Z,89.81
2023-04-18T06:22:39.354Z,89.44
2023-04-18T06:25:11.114Z,89.25
2023-04-18T06:27:39.693Z,88.73
2023-04-18T06:30:09.053Z,87.66
2023-04-18T06:32:37.457Z,88.13
2023-04-18T06:35:06.778Z,88.29
2023-04-18T06:37:35.553Z,87.97
2023-04-18T06:40:04.354Z,86.98
2023-04-18T06:42:32.836Z,86.54
2023-04-18T06:45:01.539Z,86.09
2023-04-18T06:47:31.355Z,85.41
2023-04-18T06:49:59.927Z,85.74
2023-04-18T06:52:28.406Z,86.11
2023-04-18T06:54:56.854Z,85.56
2023-04-18T06:57:26.389Z,85.27
2023-04-18T06:59:54.729Z,84.63
2023-04-18T07:02:23.167Z,83.72
2023-04-18T07:04:52.069Z,83.34
2023-04-18T07:07:21.241Z,81.75
2023-04-18T07:09:50.239Z,80.27
2023-04-18T07:12:18.825Z,80.63
2023-04-18T07:14:47.606Z,79.86
2023-04-18T07:17:16.083Z,79.98
2023-04-18T07:19:44.958Z,79.31
2023-04-18T07:22:13.464Z,79.35
2023-04-18T07:24:42.559Z,78.62
2023-04-18T07:27:10.952Z,76.88
2023-04-18T07:29:39.436Z,77.87
2023-04-18T07:32:08.710Z,76.79
2023-04-18T07:34:37.766Z,76.52
2023-04-18T07:37:07.232Z,75.86
2023-04-18T07:39:36.377Z,76.54
2023-04-18T07:42:05.005Z,76.80
2023-04-18T07:44:35.946Z,75.93
2023-04-18T07:47:07.265Z,75.38
2023-04-18T07:49:36.187Z,72.30
2023-04-18T07:52:05.164Z,71.29
2023-04-18T07:54:33.672Z,70.77
2023-04-18T07:57:02.294Z,69.90
2023-04-18T07:59:32.551Z,70.30
2023-04-18T08:02:01.137Z,70.33
2023-04-18T08:04:30.630Z,68.98
2023-04-18T08:06:59.461Z,68.45
2023-04-18T08:09:27.763Z,68.09
2023-04-18T08:11:57.243Z,68.94
2023-04-18T08:14:25.723Z,69.42
2023-04-18T08:16:54.520Z,69.99
2023-04-18T08:19:24.119Z,70.68
2023-04-18T08:21:52.805Z,69.27
2023-04-18T08:24:21.291Z,67.74
2023-04-18T08:26:49.773Z,67.14
2023-04-18T08:29:18.367Z,65.72
2023-04-18T08:31:46.888Z,66.33
2023-04-18T08:34:15.533Z,65.32
2023-04-18T08:36:43.914Z,64.73
2023-04-18T08:39:12.978Z,64.00
2023-04-18T08:41:43.466Z,63.71
2023-04-18T08:44:12.909Z,63.25
2023-04-18T08:46:42.035Z,63.25
2023-04-18T08:49:12.012Z,62.29
2023-04-18T08:51:42.073Z,62.65
2023-04-18T08:54:12.546Z,63.21
2023-04-18T08:56:41.394Z,62.99
2023-04-18T08:59:12.006Z,62.63
2023-04-18T09:01:50.037Z,61.89
2023-04-18T09:04:53.252Z,61.89
2023-04-18T09:08:21.818Z,61.74
2023-04-18T09:11:42.729Z,62.91
2023-04-18T09:18:03.734Z,59.31
2023-04-18T09:20:42.542Z,60.93
2023-04-18T09:23:16.834Z,60.56
2023-04-18T09:25:48.302Z,60.43
2023-04-18T09:28:28.918Z,58.73
2023-04-18T09:31:04.681Z,58.59
2023-04-18T09:33:33.319Z,55.95
2023-04-18T09:36:21.745Z,55.75
2023-04-18T09:38:54.611Z,56.62
2023-04-18T09:41:24.430Z,54.94
2023-04-18T09:44:12.488Z,55.11
2023-04-18T09:46:47.136Z,57.66
2023-04-18T09:49:18.093Z,56.26
2023-04-18T09:51:47.780Z,55.99
2023-04-18T09:54:18.593Z,53.91
2023-04-18T09:56:50.883Z,54.44
2023-04-18T09:59:48.106Z,54.40
2023-04-18T10:02:21.407Z,54.35
2023-04-18T10:04:51.950Z,51.14
2023-04-18T10:07:21.539Z,52.68
2023-04-18T10:09:50.169Z,53.64
2023-04-18T10:12:20.180Z,54.52
2023-04-18T10:14:49.234Z,53.97
2023-04-18T10:17:17.898Z,54.42
2023-04-18T10:19:47.129Z,54.26
2023-04-18T10:22:27.667Z,53.15
2023-04-18T10:24:57.345Z,50.33
2023-04-18T10:28:03.375Z,51.39
2023-04-18T10:30:41.583Z,52.29
2023-04-18T10:33:33.869Z,54.62
2023-04-18T10:36:09.516Z,51.92
2023-04-18T10:38:53.305Z,49.27
2023-04-18T10:41:34.996Z,47.97
2023-04-18T10:44:09.317Z,48.47
2023-04-18T10:46:40.508Z,49.27
2023-04-18T10:49:26.422Z,50.45
2023-04-18T10:52:00.856Z,50.89
2023-04-18T10:54:47.449Z,48.43
2023-04-18T10:57:16.302Z,47.89
2023-04-18T10:59:49.548Z,46.91
2023-04-18T11:02:30.461Z,48.04
2023-04-18T11:05:00.916Z,49.60
2023-04-18T11:07:42.264Z,49.41
2023-04-18T11:10:11.459Z,50.00
2023-04-18T11:12:41.484Z,51.47
2023-04-18T11:15:18.042Z,50.39
2023-04-18T11:17:46.719Z,51.19
2023-04-18T11:20:15.630Z,50.73
2023-04-18T11:22:48.219Z,51.25
2023-04-18T11:25:18.323Z,52.02
2023-04-18T11:27:49.350Z,50.43
2023-04-18T11:30:18.409Z,51.07
2023-04-18T11:32:47.110Z,52.32
2023-04-18T11:35:16.566Z,53.38
2023-04-18T11:37:50.568Z,51.81
2023-04-18T11:40:19.153Z,53.06
2023-04-18T11:42:48.145Z,53.83
2023-04-18T11:45:16.625Z,54.59
2023-04-18T11:47:46.708Z,54.12
2023-04-18T11:50:15.840Z,54.17
2023-04-18T11:52:50.890Z,54.42
2023-04-18T11:55:22.031Z,55.33
2023-04-18T11:58:01.664Z,55.99
2023-04-18T12:00:33.308Z,55.95
2023-04-18T12:03:08.846Z,55.52
2023-04-18T12:05:38.985Z,55.24
2023-04-18T12:08:39.725Z,55.39
2023-04-18T12:12:07.901Z,55.62
2023-04-18T12:14:36.622Z,57.16
2023-04-18T12:17:05.089Z,56.96
2023-04-18T12:19:34.808Z,56.68
2023-04-18T12:22:05.564Z,56.94
2023-04-18T12:24:34.111Z,56.74
2023-04-18T12:27:02.701Z,56.40
2023-04-18T12:29:31.604Z,57.20
2023-04-18T12:32:00.278Z,57.25
2023-04-18T12:34:29.345Z,58.80
2023-04-18T12:36:58.037Z,58.61
2023-04-18T12:39:26.558Z,57.73
2023-04-18T12:41:55.495Z,57.77
2023-04-18T12:44:25.047Z,59.54
2023-04-18T12:46:53.836Z,59.88
2023-04-18T12:49:23.032Z,58.85
2023-04-18T12:51:51.820Z,58.60
2023-04-18T12:54:20.918Z,59.28
2023-04-18T12:56:49.305Z,61.10
2023-04-18T12:59:18.396Z,60.94
2023-04-18T13:01:47.024Z,60.83
2023-04-18T13:04:16.206Z,60.04
2023-04-18T13:06:44.844Z,59.81
2023-04-18T13:09:13.439Z,59.92
2023-04-18T13:11:42.658Z,59.50
2023-04-18T13:14:11.320Z,60.05
2023-04-18T13:16:42.423Z,60.89
2023-04-18T13:19:12.575Z,61.29
2023-04-18T13:21:41.809Z,61.14
2023-04-18T13:24:10.396Z,60.57
2023-04-18T13:26:38.976Z,60.61
2023-04-18T13:33:00.330Z,59.46
2023-04-18T13:35:29.311Z,60.33
2023-04-18T13:37:57.770Z,60.53
2023-04-18T13:40:26.997Z,59.94
2023-04-18T13:42:55.644Z,59.13
2023-04-18T13:45:24.580Z,58.84
2023-04-18T13:47:53.137Z,59.09
2023-04-18T13:50:23.333Z,59.17
2023-04-18T13:52:52.232Z,58.56
2023-04-18T13:55:21.372Z,59.06
2023-04-18T13:57:49.954Z,58.81
2023-04-18T14:00:19.681Z,58.34
2023-04-18T14:02:48.601Z,59.12
2023-04-18T14:05:17.344Z,57.59
2023-04-18T14:07:45.932Z,55.71
2023-04-18T14:10:14.672Z,54.95
2023-04-18T14:12:43.246Z,54.59
2023-04-18T14:15:12.193Z,54.04
2023-04-18T14:17:41.510Z,53.10
2023-04-18T14:20:11.923Z,53.57
2023-04-18T14:22:40.306Z,53.60
2023-04-18T14:25:09.622Z,53.63
2023-04-18T14:27:38.194Z,53.97
2023-04-18T14:30:08.855Z,54.33
2023-04-18T14:32:37.439Z,54.09
2023-04-18T14:35:07.657Z,53.54
2023-04-18T14:37:36.069Z,53.89
2023-04-18T14:40:05.716Z,53.94
2023-04-18T14:42:34.318Z,53.46
2023-04-18T14:45:03.607Z,53.22
2023-04-18T14:47:34.870Z,53.28
2023-04-18T14:50:03.582Z,53.22
2023-04-18T14:52:32.051Z,53.62
2023-04-18T14:55:00.740Z,54.97
2023-04-18T14:57:29.608Z,55.04
2023-04-18T14:59:58.014Z,54.86
2023-04-18T15:03:26.379Z,54.86
2023-04-18T15:05:55.202Z,55.67
2023-04-18T15:08:24.056Z,55.28
2023-04-18T15:10:52.607Z,55.41
2023-04-18T15:13:21.014Z,56.76
2023-04-18T15:15:53.913Z,56.05
2023-04-18T15:18:22.594Z,55.49
2023-04-18T15:20:51.835Z,55.42
2023-04-18T15:23:20.893Z,56.45
2023-04-18T15:25:49.478Z,56.57
2023-04-18T15:29:17.657Z,57.69
2023-04-18T15:31:47.007Z,58.11
2023-04-18T15:34:15.871Z,58.99
2023-04-18T15:36:44.739Z,59.34
2023-04-18T15:39:13.538Z,59.59
2023-04-18T15:41:42.433Z,60.16
2023-04-18T15:44:11.698Z,60.21
2023-04-18T15:46:40.931Z,60.62
2023-04-18T15:50:13.724Z,60.59
2023-04-18T15:53:42.037Z,60.97
2023-04-18T15:56:10.799Z,60.98
2023-04-18T15:58:39.786Z,61.08
2023-04-18T16:01:12.451Z,61.02
2023-04-18T16:03:41.197Z,61.45
2023-04-18T16:06:10.774Z,62.01
2023-04-18T16:08:39.470Z,62.58
2023-04-18T16:11:09.364Z,63.54
2023-04-18T16:13:38.462Z,63.98
2023-04-18T16:16:07.393Z,64.47
2023-04-18T16:18:36.140Z,64.85
2023-04-18T16:21:04.943Z,65.26
2023-04-18T16:23:33.512Z,65.89
2023-04-18T16:26:02.092Z,66.45
2023-04-18T16:28:30.915Z,66.72
2023-04-18T16:30:59.331Z,67.15
2023-04-18T16:33:27.992Z,67.29
2023-04-18T16:36:03.405Z,67.51
2023-04-18T16:38:52.055Z,68.16
2023-04-18T16:41:20.754Z,68.20
2023-04-18T16:43:49.331Z,68.48
2023-04-18T16:46:17.940Z,68.65
2023-04-18T16:48:46.917Z,68.82
2023-04-18T16:51:15.904Z,69.32
2023-04-18T16:53:46.104Z,69.51
2023-04-18T16:56:14.522Z,69.76
2023-04-18T16:58:42.990Z,69.74
2023-04-18T17:01:11.674Z,70.23
2023-04-18T17:03:40.454Z,71.03
2023-04-18T17:06:09.094Z,71.59
2023-04-18T17:08:37.837Z,72.33
2023-04-18T17:11:06.844Z,72.26
2023-04-18T17:13:36.342Z,72.63
2023-04-18T17:16:05.978Z,72.52
2023-04-18T17:18:34.509Z,72.77
2023-04-18T17:21:03.653Z,73.07
2023-04-18T17:23:33.155Z,73.50
2023-04-18T17:26:01.865Z,74.66
2023-04-18T17:28:30.717Z,75.24
2023-04-18T17:31:01.662Z,76.01
2023-04-18T17:33:30.856Z,76.45
2023-04-18T17:35:59.442Z,76.56
2023-04-18T17:38:27.919Z,77.46
2023-04-18T17:41:00.903Z,77.86
2023-04-18T17:43:30.083Z,77.87
2023-04-18T17:46:01.382Z,78.02
2023-04-18T17:48:30.039Z,78.04
2023-04-18T17:50:58.606Z,78.75
2023-04-18T17:53:27.111Z,79.38
2023-04-18T17:55:59.477Z,79.74
2023-04-18T17:58:28.488Z,79.76
2023-04-18T18:00:57.459Z,80.07
2023-04-18T18:03:26.487Z,80.31
2023-04-18T18:05:55.215Z,80.36
2023-04-18T18:08:24.441Z,80.41
2023-04-18T18:10:53.256Z,80.27
2023-04-18T18:13:21.924Z,80.64
2023-04-18T18:15:50.610Z,81.01
2023-04-18T18:18:30.606Z,81.36
2023-04-18T18:20:59.459Z,81.12
2023-04-18T18:23:28.042Z,81.11
2023-04-18T18:25:56.938Z,80.99
2023-04-18T18:28:25.620Z,81.01
2023-04-18T18:30:55.896Z,81.35
2023-04-18T18:33:24.434Z,81.32
2023-04-18T18:35:53.842Z,81.80
2023-04-18T18:38:22.826Z,82.04
2023-04-18T18:40:52.062Z,81.90
2023-04-18T18:43:20.406Z,81.96
2023-04-18T18:45:49.116Z,81.71
2023-04-18T18:48:20.440Z,81.30
2023-04-18T18:50:50.404Z,81.72
2023-04-18T18:53:19.330Z,81.44
2023-04-18T18:55:47.821Z,81.20
2023-04-18T18:58:16.470Z,81.16
2023-04-18T19:00:47.235Z,81.31
2023-04-18T19:03:18.568Z,81.33
2023-04-18T19:05:47.292Z,81.05
2023-04-18T19:08:15.728Z,80.92
2023-04-18T19:10:44.285Z,80.67
2023-04-18T19:17:05.702Z,80.09
2023-04-18T19:19:34.082Z,79.94
2023-04-18T19:22:02.779Z,79.93
2023-04-18T19:24:32.230Z,79.64
2023-04-18T19:27:01.265Z,79.31
2023-04-18T19:29:31.886Z,79.22
2023-04-18T19:32:01.590Z,78.81
2023-04-18T19:34:30.303Z,78.79
2023-04-18T19:37:00.013Z,78.45
2023-04-18T19:39:29.516Z,78.57
2023-04-18T19:41:58.213Z,78.40
2023-04-18T19:44:26.996Z,78.34
2023-04-18T19:46:55.582Z,78.50
2023-04-18T19:49:24.264Z,78.26
2023-04-18T19:51:53.055Z,78.64
2023-04-18T19:54:22.141Z,78.46
2023-04-18T19:56:51.362Z,78.51
2023-04-18T19:59:20.242Z,78.30
2023-04-18T20:01:49.233Z,78.70
2023-04-18T20:04:18.259Z,78.51
2023-04-18T20:06:46.809Z,78.48
2023-04-18T20:09:17.131Z,78.65
2023-04-18T20:11:46.746Z,78.81
2023-04-18T20:14:15.100Z,78.65
2023-04-18T20:16:46.121Z,78.72
2023-04-18T20:19:15.722Z,78.70
2023-04-18T20:21:44.474Z,78.91
2023-04-18T20:24:13.865Z,78.80
2023-04-18T20:26:42.374Z,78.84
2023-04-18T20:29:11.585Z,79.27
2023-04-18T20:31:42.492Z,79.30
2023-04-18T20:34:11.368Z,79.47
2023-04-18T20:36:42.689Z,79.47
2023-04-18T20:39:13.256Z,79.43
2023-04-18T20:41:48.813Z,79.56
2023-04-18T20:44:19.512Z,79.45
2023-04-18T20:46:48.329Z,79.63
2023-04-18T20:49:17.004Z,79.63
2023-04-18T20:51:46.214Z,80.22
2023-04-18T20:54:15.082Z,80.24
2023-04-18T20:56:43.893Z,80.35
2023-04-18T20:59:12.478Z,80.67
2023-04-18T21:01:41.548Z,80.85
2023-04-18T21:04:10.136Z,80.84
2023-04-18T21:06:39.115Z,81.02
2023-04-18T21:09:07.842Z,81.01
2023-04-18T21:11:36.320Z,80.78
2023-04-18T21:14:06.930Z,80.71
2023-04-18T21:16:39.431Z,81.01
2023-04-18T21:19:08.807Z,81.14
2023-04-18T21:21:37.386Z,81.24
2023-04-18T21:24:06.212Z,81.47
2023-04-18T21:26:35.012Z,81.69
2023-04-18T21:29:05.024Z,81.77
2023-04-18T21:31:35.008Z,81.80
2023-04-18T21:34:05.650Z,82.04
2023-04-18T21:36:34.147Z,81.93
2023-04-18T21:39:04.267Z,81.88
2023-04-18T21:41:32.969Z,81.61
2023-04-18T21:44:01.542Z,81.47
2023-04-18T21:46:30.547Z,81.66
2023-04-18T21:48:59.014Z,81.62
2023-04-18T21:51:27.701Z,81.49
2023-04-18T21:53:56.286Z,81.36
2023-04-18T21:56:24.887Z,81.28
2023-04-18T21:58:53.559Z,81.30
2023-04-18T22:01:22.482Z,81.08
2023-04-18T22:03:51.554Z,81.16
2023-04-18T22:06:21.091Z,81.52
2023-04-18T22:08:50.352Z,81.27
2023-04-18T22:11:19.256Z,81.58
2023-04-18T22:13:48.034Z,81.43
2023-04-18T22:16:17.840Z,81.28
2023-04-18T22:18:46.232Z,81.54
2023-04-18T22:21:14.708Z,81.65
2023-04-18T22:23:43.622Z,81.72
2023-04-18T22:26:12.084Z,81.72
2023-04-18T22:28:40.869Z,81.61
2023-04-18T22:31:09.892Z,81.67
2023-04-18T22:33:38.449Z,81.55
2023-04-18T22:36:07.341Z,81.91
2023-04-18T22:38:35.827Z,82.28
2023-04-18T22:41:04.380Z,82.20
2023-04-18T22:43:33.102Z,82.31
2023-04-18T22:46:02.929Z,82.75
2023-04-18T22:48:31.904Z,82.83
2023-04-18T22:51:02.120Z,82.77
2023-04-18T22:53:30.811Z,82.67
2023-04-18T22:55:59.401Z,83.02
2023-04-18T22:58:28.083Z,82.99
2023-04-18T23:00:56.567Z,83.01
2023-04-18T23:03:25.145Z,83.08
2023-04-18T23:05:53.954Z,83.30
2023-04-18T23:08:22.934Z,83.08
2023-04-18T23:10:51.427Z,83.66
2023-04-18T23:13:19.797Z,83.56
2023-04-18T23:15:48.435Z,84.69
2023-04-18T23:18:16.888Z,84.41
2023-04-18T23:20:46.178Z,85.87
2023-04-18T23:23:14.755Z,85.86
2023-04-18T23:25:44.293Z,86.54
2023-04-18T23:28:13.863Z,86.88
2023-04-18T23:30:42.657Z,86.14
2023-04-18T23:33:11.554Z,87.01
2023-04-18T23:35:39.826Z,86.75
2023-04-18T23:38:08.619Z,86.77
2023-04-18T23:40:37.312Z,86.79
2023-04-18T23:43:06.203Z,86.92
2023-04-18T23:45:34.520Z,87.05
2023-04-18T23:48:03.334Z,88.01
2023-04-18T23:50:32.155Z,88.80
2023-04-18T23:53:00.837Z,89.11
2023-04-18T23:55:29.321Z,89.51
2023-04-18T23:57:57.910Z,89.41
